Time;durP1;ratioP1;P1;durP2;ratioP2;P2;SDS_P1;SDS_P2;PMS_P1;PMS_P2;Temp;Humidity;BMP_temperature;BMP_pressure;BME280_temperature;BME280_humidity;BME280_pressure;Samples;Min_cycle;Max_cycle;Signal;HPM_P1;HPM_P2
2022/03/17 00:02:02;;;;;;;25.90;19.90;;;9.90;77.80;;;;;;5019198;28;20984;-45
2022/03/17 00:04:30;;;;;;;29.27;20.57;;;10.00;78.00;;;;;;5038658;28;20460;-45
2022/03/17 00:06:58;;;;;;;32.43;19.80;;;9.90;78.10;;;;;;5012095;28;20546;-45
2022/03/17 00:09:24;;;;;;;27.50;20.50;;;9.90;78.10;;;;;;5040468;28;20538;-45
2022/03/17 00:11:52;;;;;;;29.30;20.33;;;9.80;78.20;;;;;;5041199;28;20456;-45
2022/03/17 00:14:22;;;;;;;30.30;20.60;;;9.80;78.40;;;;;;5024096;28;20974;-45
2022/03/17 00:16:49;;;;;;;28.70;22.53;;;9.80;78.70;;;;;;5027496;28;20487;-45
2022/03/17 00:19:16;;;;;;;30.00;20.83;;;9.80;78.80;;;;;;5016188;28;20443;-45
2022/03/17 00:21:43;;;;;;;27.50;21.03;;;9.80;78.90;;;;;;5033200;28;20463;-45
2022/03/17 00:24:10;;;;;;;28.60;20.73;;;9.80;79.00;;;;;;5028241;28;20712;-44
2022/03/17 00:26:38;;;;;;;26.40;19.50;;;9.70;79.10;;;;;;5028865;28;20554;-45
2022/03/17 00:29:08;;;;;;;31.93;22.00;;;9.70;79.10;;;;;;5030574;28;20478;-45
2022/03/17 00:31:38;;;;;;;33.67;21.93;;;9.70;79.30;;;;;;5028094;28;20457;-45
2022/03/17 00:34:09;;;;;;;25.13;20.43;;;9.70;79.40;;;;;;5026631;28;20467;-45
2022/03/17 00:36:36;;;;;;;29.47;20.60;;;9.70;79.30;;;;;;5026472;28;20946;-45
2022/03/17 00:39:05;;;;;;;28.03;20.43;;;9.80;79.30;;;;;;5026395;28;20458;-45
2022/03/17 00:41:32;;;;;;;29.20;20.63;;;9.80;79.10;;;;;;5025695;28;20479;-45
2022/03/17 00:43:59;;;;;;;25.60;20.60;;;9.80;79.10;;;;;;5024634;28;20509;-44
2022/03/17 00:46:26;;;;;;;30.47;22.17;;;9.80;79.10;;;;;;5022296;28;20936;-45
2022/03/17 00:48:53;;;;;;;31.00;22.07;;;9.80;79.20;;;;;;5027719;28;20864;-45
2022/03/17 00:51:20;;;;;;;26.03;20.60;;;9.80;79.10;;;;;;5030667;28;20491;-45
2022/03/17 00:53:47;;;;;;;31.20;21.83;;;9.80;79.20;;;;;;5021197;28;20491;-45
2022/03/17 00:56:13;;;;;;;32.97;23.30;;;9.80;79.10;;;;;;5026218;28;20447;-45
2022/03/17 00:58:45;;;;;;;30.47;21.87;;;9.80;78.80;;;;;;5025935;28;21364;-45
2022/03/17 01:01:15;;;;;;;31.33;22.93;;;9.80;78.80;;;;;;5023536;28;20474;-45
2022/03/17 01:03:43;;;;;;;31.80;22.03;;;9.80;78.70;;;;;;5023187;28;20491;-45
2022/03/17 01:06:10;;;;;;;29.93;23.03;;;9.80;78.70;;;;;;5023424;28;20830;-45
2022/03/17 01:08:38;;;;;;;35.33;24.17;;;9.80;78.50;;;;;;5009438;28;20833;-45
2022/03/17 01:11:05;;;;;;;32.07;22.93;;;9.80;78.50;;;;;;5010833;28;20466;-45
2022/03/17 01:13:33;;;;;;;29.83;22.40;;;9.70;78.50;;;;;;5028928;28;20447;-45
2022/03/17 01:16:00;;;;;;;29.77;21.63;;;9.70;78.50;;;;;;5024803;28;20865;-45
2022/03/17 01:18:27;;;;;;;31.33;21.47;;;9.70;78.50;;;;;;5027540;28;20751;-45
2022/03/17 01:20:53;;;;;;;39.90;21.40;;;9.70;78.50;;;;;;5026603;28;20933;-45
2022/03/17 01:23:20;;;;;;;29.17;21.90;;;9.70;78.30;;;;;;5010974;28;20448;-45
2022/03/17 01:25:47;;;;;;;32.57;23.43;;;9.70;78.30;;;;;;5028240;28;20451;-45
2022/03/17 01:28:13;;;;;;;28.60;21.93;;;9.70;78.30;;;;;;5024022;28;20491;-45
2022/03/17 01:30:40;;;;;;;30.20;22.47;;;9.70;78.30;;;;;;5024256;28;20464;-45
2022/03/17 01:33:07;;;;;;;28.63;21.20;;;9.70;78.30;;;;;;5025422;28;20455;-45
2022/03/17 01:35:34;;;;;;;29.20;21.80;;;9.70;78.30;;;;;;5024887;28;20832;-45
2022/03/17 01:38:01;;;;;;;35.23;23.63;;;9.70;78.40;;;;;;5020900;28;21019;-45
2022/03/17 01:40:28;;;;;;;31.40;23.53;;;9.70;78.40;;;;;;5040312;28;20460;-45
2022/03/17 01:42:55;;;;;;;28.50;21.67;;;9.70;78.50;;;;;;5027749;28;20450;-45
2022/03/17 01:45:22;;;;;;;29.23;21.73;;;9.60;78.60;;;;;;5022714;28;20482;-45
2022/03/17 01:47:49;;;;;;;33.37;23.43;;;9.60;78.80;;;;;;5010828;28;20567;-44
2022/03/17 01:50:17;;;;;;;29.60;21.77;;;9.60;79.10;;;;;;5029970;28;20475;-45
2022/03/17 01:52:44;;;;;;;31.93;22.37;;;9.70;79.00;;;;;;5027784;28;20439;-45
2022/03/17 01:55:13;;;;;;;32.40;23.50;;;9.60;79.00;;;;;;5024372;28;20631;-44
2022/03/17 01:57:40;;;;;;;30.67;22.50;;;9.70;79.30;;;;;;5027065;28;20489;-45
2022/03/17 02:00:13;;;;;;;31.67;22.57;;;9.70;79.00;;;;;;5027483;28;20456;-45
2022/03/17 02:02:44;;;;;;;34.77;23.10;;;9.70;79.10;;;;;;5023619;28;20525;-45
2022/03/17 02:05:11;;;;;;;31.97;22.57;;;9.70;79.30;;;;;;5023803;28;20464;-44
2022/03/17 02:08:00;;;;;;;36.13;23.07;;;9.60;79.40;;;;;;5022227;28;20490;-44
2022/03/17 02:13:08;;;;;;;26.13;20.30;;;9.60;79.60;;;;;;5023288;28;20466;-44
2022/03/17 02:13:14;;;;;;;33.00;24.07;;;9.50;79.60;;;;;;5020061;28;20494;-44
2022/03/17 02:15:40;;;;;;;27.43;21.23;;;9.50;79.80;;;;;;5016158;28;20467;-44
2022/03/17 02:18:07;;;;;;;29.83;21.60;;;9.50;79.90;;;;;;5015533;28;20482;-45
2022/03/17 02:20:35;;;;;;;27.83;20.70;;;9.50;80.10;;;;;;5017158;28;20459;-45
2022/03/17 02:25:52;;;;;;;31.10;21.63;;;9.50;80.40;;;;;;5023921;28;20848;-45
2022/03/17 02:28:20;;;;;;;33.83;21.70;;;9.40;80.50;;;;;;5022717;28;20456;-45
2022/03/17 02:30:46;;;;;;;25.20;20.40;;;9.40;80.70;;;;;;5022637;28;20495;-45
2022/03/17 02:33:16;;;;;;;28.70;20.70;;;9.40;80.70;;;;;;5026269;28;20608;-45
2022/03/17 02:35:45;;;;;;;34.40;22.50;;;9.40;80.80;;;;;;5022894;28;20500;-45
2022/03/17 02:38:13;;;;;;;31.40;22.50;;;9.30;80.80;;;;;;5026762;28;20479;-45
2022/03/17 02:40:43;;;;;;;30.37;20.97;;;9.30;80.90;;;;;;5025901;28;20459;-45
2022/03/17 02:43:14;;;;;;;32.83;21.73;;;9.30;80.80;;;;;;5021059;28;20519;-44
2022/03/17 02:45:43;;;;;;;29.37;21.80;;;9.30;80.90;;;;;;5021004;28;20491;-44
2022/03/17 02:48:10;;;;;;;35.83;23.60;;;9.30;81.00;;;;;;5005761;28;20498;-45
2022/03/17 02:50:38;;;;;;;32.73;23.37;;;9.20;81.30;;;;;;5021754;28;20464;-45
2022/03/17 02:53:07;;;;;;;24.87;19.70;;;9.20;81.30;;;;;;5025948;28;20471;-45
2022/03/17 02:55:40;;;;;;;32.07;23.70;;;9.20;81.30;;;;;;5018386;28;20464;-44
2022/03/17 02:58:08;;;;;;;30.17;23.13;;;9.20;81.50;;;;;;5025368;28;20496;-45
2022/03/17 03:00:36;;;;;;;30.30;22.73;;;9.20;81.80;;;;;;5024561;28;20473;-45
2022/03/17 03:03:07;;;;;;;30.47;21.37;;;9.20;81.80;;;;;;5020002;28;20461;-45
2022/03/17 03:05:35;;;;;;;29.70;21.50;;;9.20;81.80;;;;;;5022163;28;20563;-45
2022/03/17 03:08:02;;;;;;;34.00;23.13;;;9.20;81.80;;;;;;5021054;28;20500;-45
2022/03/17 03:10:30;;;;;;;33.17;23.50;;;9.20;81.80;;;;;;5037722;28;20463;-45
2022/03/17 03:12:58;;;;;;;32.67;22.80;;;9.20;82.00;;;;;;5023097;28;20923;-45
2022/03/17 03:15:24;;;;;;;31.37;22.43;;;9.20;82.00;;;;;;5020575;28;20459;-45
2022/03/17 03:17:51;;;;;;;29.47;22.77;;;9.20;81.80;;;;;;5015785;28;20492;-45
2022/03/17 03:20:18;;;;;;;34.40;23.80;;;9.20;82.10;;;;;;5027227;28;20458;-45
2022/03/17 03:22:45;;;;;;;32.93;22.10;;;9.20;82.10;;;;;;5012857;28;20466;-45
2022/03/17 03:25:12;;;;;;;33.87;23.70;;;9.20;82.20;;;;;;5023550;28;20451;-45
2022/03/17 03:27:43;;;;;;;30.57;20.97;;;9.30;82.00;;;;;;5021461;28;20499;-45
2022/03/17 03:30:12;;;;;;;30.93;22.47;;;9.30;81.80;;;;;;5021100;28;20500;-45
2022/03/17 03:32:39;;;;;;;31.57;22.77;;;9.30;81.60;;;;;;5021074;28;20465;-45
2022/03/17 03:37:52;;;;;;;36.60;25.80;;;9.20;82.10;;;;;;5022940;28;20498;-46
2022/03/17 03:40:19;;;;;;;40.37;25.50;;;9.20;82.10;;;;;;5019460;28;20467;-46
2022/03/17 03:42:46;;;;;;;34.17;23.40;;;9.30;82.00;;;;;;5018109;28;20478;-46
2022/03/17 03:45:13;;;;;;;34.27;25.30;;;9.20;81.80;;;;;;5021923;28;20451;-46
2022/03/17 03:47:40;;;;;;;37.27;26.27;;;9.20;82.00;;;;;;5018485;28;20531;-46
2022/03/17 03:50:07;;;;;;;33.93;24.83;;;9.20;81.80;;;;;;5020268;28;20459;-46
2022/03/17 03:52:34;;;;;;;38.60;26.07;;;9.20;82.00;;;;;;5016036;28;20474;-46
2022/03/17 03:55:01;;;;;;;34.60;23.63;;;9.20;82.00;;;;;;5021819;28;20463;-46
2022/03/17 03:57:28;;;;;;;38.00;25.10;;;9.10;82.10;;;;;;5020046;28;20491;-44
2022/03/17 03:59:55;;;;;;;30.67;22.20;;;9.10;82.20;;;;;;5014135;28;20468;-43
2022/03/17 04:02:22;;;;;;;35.03;24.60;;;9.20;82.10;;;;;;5014213;28;20465;-43
2022/03/17 04:04:49;;;;;;;35.80;24.03;;;9.20;82.10;;;;;;5013474;28;20582;-43
2022/03/17 04:07:18;;;;;;;37.03;24.40;;;9.20;82.10;;;;;;5016997;28;20478;-43
2022/03/17 04:09:45;;;;;;;31.67;23.73;;;9.10;82.10;;;;;;5015538;28;20467;-44
2022/03/17 04:12:13;;;;;;;34.20;24.43;;;9.20;82.20;;;;;;5015923;28;20840;-43
2022/03/17 04:14:40;;;;;;;36.93;23.47;;;9.20;82.20;;;;;;5017627;28;20921;-43
2022/03/17 04:17:12;;;;;;;35.57;25.40;;;9.20;82.40;;;;;;5018315;28;20943;-43
2022/03/17 04:19:39;;;;;;;31.27;23.70;;;9.20;82.10;;;;;;5014242;28;20696;-43
2022/03/17 04:22:07;;;;;;;37.40;26.70;;;9.20;82.30;;;;;;5019088;28;20848;-43
2022/03/17 04:24:34;;;;;;;31.67;24.00;;;9.10;82.40;;;;;;5000318;28;20466;-43
2022/03/17 04:27:01;;;;;;;32.17;23.13;;;9.10;82.50;;;;;;5017986;28;20455;-43
2022/03/17 04:29:28;;;;;;;34.10;24.47;;;9.10;82.60;;;;;;5018662;28;20570;-43
2022/03/17 04:31:55;;;;;;;37.77;24.40;;;9.00;82.60;;;;;;5019617;28;20451;-43
2022/03/17 04:34:22;;;;;;;33.27;24.30;;;9.00;82.80;;;;;;5015036;28;20463;-43
2022/03/17 04:36:50;;;;;;;34.20;23.67;;;9.00;82.80;;;;;;5018774;28;20459;-43
2022/03/17 04:39:16;;;;;;;32.63;23.97;;;9.00;82.80;;;;;;5021390;28;20501;-43
2022/03/17 04:41:43;;;;;;;37.50;25.90;;;9.00;82.90;;;;;;5018732;28;20554;-43
2022/03/17 04:44:12;;;;;;;35.30;25.27;;;9.20;82.80;;;;;;5021167;28;20456;-43
2022/03/17 04:46:40;;;;;;;37.07;25.20;;;9.20;82.30;;;;;;5019681;28;20482;-43
2022/03/17 04:49:09;;;;;;;39.43;27.83;;;9.20;82.50;;;;;;5021163;28;20456;-43
2022/03/17 04:51:36;;;;;;;35.30;26.90;;;9.20;82.50;;;;;;5017088;28;20460;-43
2022/03/17 04:54:03;;;;;;;40.00;26.67;;;9.10;82.40;;;;;;5018673;28;20858;-43
2022/03/17 04:56:30;;;;;;;39.80;26.80;;;9.10;82.60;;;;;;5019099;28;20978;-43
2022/03/17 04:58:56;;;;;;;36.73;24.53;;;9.10;82.70;;;;;;5016281;28;20487;-43
2022/03/17 05:01:23;;;;;;;38.50;27.00;;;9.00;82.80;;;;;;5016509;28;20452;-43
2022/03/17 05:03:50;;;;;;;38.03;25.57;;;9.00;82.90;;;;;;5006408;28;20474;-43
2022/03/17 05:06:18;;;;;;;40.13;28.17;;;9.00;82.80;;;;;;5017060;28;21046;-43
2022/03/17 05:08:45;;;;;;;40.40;27.30;;;9.10;82.80;;;;;;5015857;28;20463;-43
2022/03/17 05:11:13;;;;;;;37.27;25.97;;;9.00;82.80;;;;;;5017618;28;20959;-43
2022/03/17 05:13:42;;;;;;;36.97;25.70;;;9.00;82.90;;;;;;5014111;28;21447;-43
2022/03/17 05:16:09;;;;;;;37.33;25.57;;;9.10;83.00;;;;;;5017054;28;20470;-43
2022/03/17 05:18:36;;;;;;;39.10;26.20;;;9.10;82.80;;;;;;5019099;28;21067;-43
2022/03/17 05:21:03;;;;;;;39.77;25.40;;;9.00;82.90;;;;;;5015362;28;20464;-43
2022/03/17 05:23:34;;;;;;;34.00;26.03;;;9.00;82.90;;;;;;5003843;28;20773;-43
2022/03/17 05:26:01;;;;;;;38.70;27.50;;;9.00;82.80;;;;;;5016542;28;20467;-43
2022/03/17 05:28:28;;;;;;;44.00;28.70;;;9.00;82.90;;;;;;5003042;28;20882;-43
2022/03/17 05:30:55;;;;;;;37.93;26.40;;;9.00;82.90;;;;;;5020173;28;20470;-44
2022/03/17 05:33:24;;;;;;;36.97;26.07;;;9.00;83.10;;;;;;5015612;28;20464;-44
2022/03/17 05:35:51;;;;;;;38.13;26.70;;;9.00;83.00;;;;;;5017420;28;20469;-43
2022/03/17 05:38:18;;;;;;;38.07;27.23;;;9.00;83.00;;;;;;5016123;28;20487;-43
2022/03/17 05:40:45;;;;;;;39.50;28.50;;;9.00;83.00;;;;;;5015392;28;21023;-42
2022/03/17 05:43:12;;;;;;;36.10;25.73;;;9.00;83.00;;;;;;5017062;28;20490;-43
2022/03/17 05:45:41;;;;;;;41.77;27.40;;;8.90;83.00;;;;;;5015098;28;20465;-43
2022/03/17 05:48:08;;;;;;;41.40;27.00;;;8.90;83.10;;;;;;5017295;28;20471;-43
2022/03/17 05:50:41;;;;;;;38.43;27.00;;;8.90;83.10;;;;;;5018309;28;20535;-44
2022/03/17 05:53:09;;;;;;;39.40;25.90;;;8.90;83.20;;;;;;5014711;28;20459;-43
2022/03/17 05:55:36;;;;;;;41.93;26.50;;;8.90;83.20;;;;;;5015012;28;20817;-43
2022/03/17 05:58:04;;;;;;;40.70;26.70;;;8.90;83.30;;;;;;5017234;28;20487;-43
2022/03/17 06:00:32;;;;;;;38.50;27.13;;;8.90;83.30;;;;;;5018312;28;20902;-42
2022/03/17 06:03:00;;;;;;;36.80;24.70;;;8.90;83.50;;;;;;5014199;28;20872;-43
2022/03/17 06:05:28;;;;;;;43.73;28.87;;;8.90;83.30;;;;;;5019157;28;20843;-42
2022/03/17 06:08:00;;;;;;;40.10;26.53;;;8.90;83.20;;;;;;5015160;28;21022;-42
2022/03/17 06:10:32;;;;;;;41.20;27.50;;;8.90;83.30;;;;;;5016609;28;20506;-42
2022/03/17 06:13:03;;;;;;;37.50;27.80;;;8.90;83.40;;;;;;4997338;28;20560;-42
2022/03/17 06:15:31;;;;;;;40.60;26.17;;;8.90;83.40;;;;;;5014281;28;20925;-42
2022/03/17 06:17:59;;;;;;;39.93;26.77;;;8.90;83.50;;;;;;5016265;28;20956;-42
2022/03/17 06:20:28;;;;;;;46.17;25.53;;;8.90;83.60;;;;;;5017382;28;20858;-42
2022/03/17 06:22:58;;;;;;;39.37;27.07;;;8.90;83.60;;;;;;5020463;28;20478;-42
2022/03/17 06:25:28;;;;;;;41.87;27.90;;;8.90;83.60;;;;;;5018249;28;20468;-41
2022/03/17 06:27:55;;;;;;;39.97;27.67;;;8.90;83.70;;;;;;5013877;28;20472;-42
2022/03/17 06:30:32;;;;;;;39.57;27.93;;;8.90;83.70;;;;;;5020664;28;20544;-42
2022/03/17 06:32:59;;;;;;;38.97;26.60;;;8.90;83.70;;;;;;5012411;28;20534;-42
2022/03/17 06:35:27;;;;;;;42.77;27.87;;;8.90;83.60;;;;;;5015469;28;20467;-42
2022/03/17 06:37:56;;;;;;;43.43;29.60;;;8.90;83.60;;;;;;5014692;28;20492;-42
2022/03/17 06:40:25;;;;;;;38.33;27.30;;;8.90;83.60;;;;;;5020854;28;20463;-42
2022/03/17 06:42:53;;;;;;;42.73;26.80;;;8.90;83.70;;;;;;5021577;28;20965;-42
2022/03/17 06:45:20;;;;;;;43.33;30.77;;;8.90;83.70;;;;;;5014564;28;20535;-42
2022/03/17 06:47:47;;;;;;;40.67;28.87;;;9.00;83.70;;;;;;5001788;28;21115;-42
2022/03/17 06:50:15;;;;;;;41.83;27.53;;;9.00;83.70;;;;;;5001055;28;20456;-42
2022/03/17 06:52:43;;;;;;;37.47;27.50;;;9.00;83.70;;;;;;5017425;28;20459;-42
2022/03/17 06:55:11;;;;;;;36.47;27.87;;;9.00;83.70;;;;;;5032743;28;20467;-42
2022/03/17 06:57:38;;;;;;;49.83;30.23;;;9.10;83.50;;;;;;5013504;28;20456;-42
2022/03/17 07:00:07;;;;;;;42.57;28.67;;;9.10;83.40;;;;;;5014977;28;20936;-42
2022/03/17 07:02:34;;;;;;;40.13;28.87;;;9.10;83.50;;;;;;5002634;28;20487;-42
2022/03/17 07:05:02;;;;;;;42.97;28.83;;;9.20;83.40;;;;;;5016601;28;20456;-42
2022/03/17 07:07:29;;;;;;;43.17;30.37;;;9.20;83.30;;;;;;5011455;28;20472;-42
2022/03/17 07:09:56;;;;;;;50.57;31.00;;;9.20;83.40;;;;;;5016949;28;20461;-42
2022/03/17 07:12:23;;;;;;;42.53;29.03;;;9.20;83.30;;;;;;4997952;28;20460;-42
2022/03/17 07:14:50;;;;;;;43.60;29.30;;;9.20;83.30;;;;;;5014691;28;21176;-42
2022/03/17 07:17:22;;;;;;;42.50;28.60;;;9.30;83.30;;;;;;5015562;28;20567;-42
2022/03/17 07:19:58;;;;;;;36.27;26.27;;;9.30;83.30;;;;;;5002048;28;20869;-42
2022/03/17 07:22:28;;;;;;;39.13;27.57;;;9.30;83.20;;;;;;5015235;28;20542;-42
2022/03/17 07:24:55;;;;;;;39.07;28.87;;;9.40;83.10;;;;;;5014091;28;20467;-42
2022/03/17 07:27:22;;;;;;;41.83;29.27;;;9.40;83.00;;;;;;5014208;28;20453;-42
2022/03/17 07:29:49;;;;;;;44.17;28.50;;;9.50;82.80;;;;;;5000499;28;20465;-42
2022/03/17 07:32:18;;;;;;;45.97;29.73;;;9.50;82.80;;;;;;5000693;28;20538;-42
2022/03/17 07:34:49;;;;;;;43.10;30.10;;;9.50;82.50;;;;;;5013579;28;20464;-42
2022/03/17 07:37:17;;;;;;;41.07;29.13;;;9.60;82.40;;;;;;5007093;28;20959;-42
2022/03/17 07:39:44;;;;;;;42.77;30.47;;;9.60;82.30;;;;;;5015933;28;20483;-42
2022/03/17 07:42:10;;;;;;;39.73;28.00;;;9.60;82.30;;;;;;4999946;28;20471;-42
2022/03/17 07:44:37;;;;;;;42.30;28.40;;;9.60;82.50;;;;;;5019850;28;20968;-42
2022/03/17 07:47:07;;;;;;;36.77;28.33;;;9.70;82.50;;;;;;5006737;28;20704;-42
2022/03/17 07:49:36;;;;;;;43.53;29.20;;;9.70;82.50;;;;;;5022773;28;20539;-42
2022/03/17 07:52:04;;;;;;;47.70;31.27;;;9.70;82.50;;;;;;5023258;28;20439;-42
2022/03/17 07:54:31;;;;;;;44.47;29.30;;;9.80;82.50;;;;;;5033144;28;20467;-42
2022/03/17 07:57:03;;;;;;;47.47;33.17;;;9.80;82.40;;;;;;5021851;28;20467;-42
2022/03/17 07:59:31;;;;;;;48.53;30.57;;;9.80;82.30;;;;;;5003812;28;20486;-42
2022/03/17 08:01:58;;;;;;;42.67;29.73;;;9.90;82.10;;;;;;5001617;28;20458;-42
2022/03/17 08:04:25;;;;;;;44.43;30.40;;;9.90;82.10;;;;;;5007842;28;20506;-42
2022/03/17 08:07:00;;;;;;;43.73;28.87;;;10.00;81.90;;;;;;5021621;28;20456;-42
2022/03/17 08:09:28;;;;;;;40.60;30.33;;;10.00;81.20;;;;;;5019733;28;20556;-42
2022/03/17 08:11:54;;;;;;;43.33;31.10;;;10.10;81.10;;;;;;5019039;28;20469;-42
2022/03/17 08:14:21;;;;;;;41.70;30.03;;;10.20;80.80;;;;;;5018961;28;20479;-42
2022/03/17 08:16:48;;;;;;;40.93;27.90;;;10.20;80.20;;;;;;4998437;28;21011;-42
2022/03/17 08:19:15;;;;;;;43.53;30.37;;;10.20;80.50;;;;;;5020857;28;20476;-42
2022/03/17 08:21:42;;;;;;;44.33;30.40;;;10.20;80.50;;;;;;5013803;28;20455;-42
2022/03/17 08:24:09;;;;;;;40.40;29.57;;;10.20;80.50;;;;;;5018438;28;20455;-42
2022/03/17 08:26:37;;;;;;;42.37;28.57;;;10.30;80.40;;;;;;5013529;28;20455;-43
2022/03/17 08:29:05;;;;;;;45.57;30.03;;;10.30;80.40;;;;;;5017497;28;20452;-42
2022/03/17 08:31:32;;;;;;;45.47;29.73;;;10.40;79.80;;;;;;5032749;28;20467;-42
2022/03/17 08:33:59;;;;;;;39.73;29.23;;;10.40;78.80;;;;;;5005880;28;20497;-42
2022/03/17 08:36:27;;;;;;;36.87;25.20;;;10.50;77.30;;;;;;5019076;28;20502;-42
2022/03/17 08:38:54;;;;;;;36.50;26.83;;;10.50;76.70;;;;;;5022448;28;20617;-42
2022/03/17 08:41:21;;;;;;;34.87;24.77;;;10.60;76.10;;;;;;5008600;28;20984;-42
2022/03/17 08:43:48;;;;;;;33.23;25.60;;;10.60;75.60;;;;;;5017618;28;20849;-42
2022/03/17 08:49:20;;;;;;;37.97;25.77;;;10.60;75.50;;;;;;5020295;28;20452;-42
2022/03/17 08:51:50;;;;;;;34.90;26.73;;;10.70;74.90;;;;;;5002710;28;20482;-42
2022/03/17 08:54:22;;;;;;;33.20;25.80;;;10.70;74.80;;;;;;5025599;28;20464;-42
2022/03/17 08:56:59;;;;;;;36.87;26.57;;;10.70;75.10;;;;;;5020780;28;20455;-42
2022/03/17 08:59:44;;;;;;;36.10;27.10;;;10.80;75.50;;;;;;5025578;28;20479;-42
2022/03/17 09:02:11;;;;;;;40.20;28.47;;;10.80;75.60;;;;;;5007482;28;20444;-42
2022/03/17 09:04:39;;;;;;;35.70;26.57;;;10.90;75.60;;;;;;5025720;28;20448;-42
2022/03/17 09:07:06;;;;;;;37.07;26.53;;;10.90;75.50;;;;;;5022813;28;20469;-42
2022/03/17 09:09:38;;;;;;;40.07;28.13;;;10.90;75.40;;;;;;5022935;28;21053;-42
2022/03/17 09:12:07;;;;;;;41.00;27.30;;;11.00;75.20;;;;;;5022425;28;20459;-42
2022/03/17 09:14:40;;;;;;;36.90;27.73;;;11.00;75.00;;;;;;5024789;28;20460;-42
2022/03/17 09:17:07;;;;;;;35.93;26.37;;;11.00;74.40;;;;;;5005183;28;20458;-43
2022/03/17 09:19:34;;;;;;;41.13;28.80;;;11.00;74.40;;;;;;5025875;28;20502;-43
2022/03/17 09:22:00;;;;;;;35.47;25.23;;;11.10;74.30;;;;;;5027788;28;20457;-43
2022/03/17 09:24:30;;;;;;;34.03;26.63;;;11.10;74.40;;;;;;5025142;28;20469;-43
2022/03/17 09:27:00;;;;;;;38.93;28.00;;;11.10;74.00;;;;;;5024866;28;20531;-43
2022/03/17 09:29:30;;;;;;;39.20;26.77;;;11.20;73.30;;;;;;5019480;28;20464;-43
2022/03/17 09:31:58;;;;;;;34.10;25.07;;;11.20;73.00;;;;;;5023274;28;20475;-43
2022/03/17 09:34:26;;;;;;;34.23;24.67;;;11.20;72.80;;;;;;5023503;28;20485;-43
2022/03/17 09:36:53;;;;;;;36.17;26.37;;;11.20;72.30;;;;;;5005605;28;20986;-43
2022/03/17 09:40:02;;;;;;;35.07;25.13;;;11.20;72.20;;;;;;5010934;28;21436;-43
2022/03/17 09:42:10;;;;;;;36.90;26.03;;;11.20;72.20;;;;;;5015693;28;20462;-43
2022/03/17 09:44:37;;;;;;;36.13;26.30;;;11.20;72.40;;;;;;5025605;28;20866;-43
2022/03/17 09:47:09;;;;;;;32.20;25.30;;;11.20;72.40;;;;;;5025434;28;20825;-43
2022/03/17 09:49:37;;;;;;;33.03;24.50;;;11.20;72.30;;;;;;5028524;28;20546;-43
2022/03/17 09:52:11;;;;;;;37.27;25.90;;;11.20;72.20;;;;;;5023122;28;21030;-43
2022/03/17 09:54:38;;;;;;;30.80;23.27;;;11.20;72.40;;;;;;5017541;28;20471;-43
2022/03/17 09:57:05;;;;;;;42.00;26.57;;;11.20;72.10;;;;;;5025069;28;20455;-43
2022/03/17 09:59:32;;;;;;;36.20;24.77;;;11.20;71.10;;;;;;5020430;28;20477;-43
2022/03/17 10:02:00;;;;;;;35.63;27.80;;;11.20;71.00;;;;;;5014666;28;20471;-43
2022/03/17 10:04:39;;;;;;;34.20;23.67;;;11.20;71.30;;;;;;5022911;28;20490;-43
2022/03/17 10:07:07;;;;;;;33.40;25.83;;;11.30;71.40;;;;;;5023089;28;20459;-43
2022/03/17 10:09:34;;;;;;;35.00;26.67;;;11.20;71.40;;;;;;5026081;28;20458;-43
2022/03/17 10:12:09;;;;;;;35.63;27.20;;;11.20;71.40;;;;;;5010347;28;20957;-43
2022/03/17 10:14:43;;;;;;;36.80;28.30;;;11.20;71.80;;;;;;5024620;28;20849;-43
2022/03/17 10:17:33;;;;;;;37.63;26.20;;;11.20;71.80;;;;;;5020522;28;20452;-43
2022/03/17 10:20:25;;;;;;;40.20;27.17;;;11.20;71.00;;;;;;5020142;28;20495;-43
2022/03/17 10:22:57;;;;;;;36.53;26.07;;;11.20;71.30;;;;;;5021062;28;20461;-43
2022/03/17 10:25:29;;;;;;;42.53;28.03;;;11.20;71.30;;;;;;5015619;28;20455;-43
2022/03/17 10:27:57;;;;;;;37.53;26.73;;;11.20;71.40;;;;;;5014186;28;20959;-43
2022/03/17 10:30:35;;;;;;;34.20;25.57;;;11.20;71.50;;;;;;5015937;28;20464;-43
2022/03/17 10:33:13;;;;;;;33.30;25.07;;;11.20;72.10;;;;;;5015827;28;20463;-43
2022/03/17 10:35:49;;;;;;;39.73;26.87;;;11.30;72.30;;;;;;5030940;28;21015;-43
2022/03/17 10:38:18;;;;;;;41.43;28.30;;;11.30;73.10;;;;;;5001371;28;21058;-43
2022/03/17 10:41:03;;;;;;;39.57;28.07;;;11.30;73.90;;;;;;5016933;28;20501;-43
2022/03/17 10:43:29;;;;;;;44.17;29.03;;;11.30;75.20;;;;;;5016826;28;20457;-43
2022/03/17 10:46:06;;;;;;;39.30;26.97;;;11.20;75.50;;;;;;5021470;28;20547;-43
2022/03/17 10:48:34;;;;;;;38.57;27.40;;;11.20;75.50;;;;;;5018460;28;20459;-43
2022/03/17 10:51:01;;;;;;;42.87;28.83;;;11.20;76.30;;;;;;5019188;28;20455;-43
2022/03/17 10:53:31;;;;;;;41.00;29.10;;;11.20;76.40;;;;;;5016094;28;20821;-43
2022/03/17 10:56:12;;;;;;;39.63;27.20;;;11.10;76.60;;;;;;5013280;28;20461;-43
2022/03/17 10:58:43;;;;;;;39.97;25.07;;;11.20;77.80;;;;;;5017534;28;20567;-43
2022/03/17 11:01:42;;;;;;;33.93;23.73;;;11.20;77.60;;;;;;5019687;28;20452;-43
2022/03/17 11:04:11;;;;;;;28.43;18.93;;;11.20;78.60;;;;;;5017113;28;20455;-43
2022/03/17 11:06:39;;;;;;;24.83;17.03;;;11.20;79.10;;;;;;5017129;28;20476;-43
2022/03/17 11:09:08;;;;;;;27.90;19.07;;;11.20;79.10;;;;;;5014752;28;20464;-43
2022/03/17 11:11:37;;;;;;;22.63;16.27;;;11.30;80.00;;;;;;5018426;28;20474;-43
2022/03/17 11:14:05;;;;;;;23.10;17.13;;;11.20;79.80;;;;;;5016345;28;21004;-43
2022/03/17 11:16:43;;;;;;;26.17;18.60;;;11.20;80.50;;;;;;5017761;28;20444;-43
2022/03/17 11:19:12;;;;;;;28.70;18.57;;;11.20;81.10;;;;;;5016477;28;20578;-43
2022/03/17 11:21:45;;;;;;;31.63;18.90;;;11.20;80.90;;;;;;5016941;28;20448;-43
2022/03/17 11:24:22;;;;;;;29.50;18.90;;;11.10;81.20;;;;;;5016724;28;20900;-43
2022/03/17 11:26:52;;;;;;;30.57;20.30;;;11.10;81.20;;;;;;5014944;28;20718;-43
2022/03/17 11:29:21;;;;;;;29.80;18.20;;;11.10;82.00;;;;;;5018366;28;20460;-43
2022/03/17 11:31:51;;;;;;;25.20;18.00;;;11.00;81.90;;;;;;5018423;28;20547;-43
2022/03/17 11:34:46;;;;;;;27.00;17.10;;;11.00;82.30;;;;;;5014878;28;20500;-43
2022/03/17 11:37:16;;;;;;;26.67;17.77;;;11.00;82.40;;;;;;5015822;28;20452;-43
2022/03/17 11:39:53;;;;;;;28.53;17.00;;;11.00;82.20;;;;;;5013707;28;20491;-43
2022/03/17 11:42:34;;;;;;;27.33;17.20;;;11.00;81.80;;;;;;5013451;28;20467;-43
2022/03/17 11:45:21;;;;;;;25.40;16.37;;;10.90;81.70;;;;;;5016933;28;20455;-43
2022/03/17 11:47:56;;;;;;;28.80;18.53;;;10.90;81.80;;;;;;5009295;28;20474;-43
2022/03/17 11:50:36;;;;;;;29.33;17.90;;;10.90;81.50;;;;;;5016148;28;20836;-43
2022/03/17 11:53:14;;;;;;;29.97;17.87;;;10.90;81.30;;;;;;5031732;28;20467;-42
2022/03/17 11:55:57;;;;;;;27.13;16.40;;;10.90;81.40;;;;;;5015785;28;20456;-42
2022/03/17 11:58:47;;;;;;;20.50;14.97;;;10.90;81.40;;;;;;5017842;28;20463;-43
2022/03/17 12:01:28;;;;;;;21.73;14.93;;;10.90;81.20;;;;;;5011863;28;20483;-43
2022/03/17 12:04:00;;;;;;;20.67;14.47;;;10.90;80.20;;;;;;5018504;28;20487;-43
2022/03/17 12:06:28;;;;;;;22.10;14.53;;;10.90;80.20;;;;;;5016598;28;20543;-43
2022/03/17 12:09:31;;;;;;;20.30;14.27;;;11.00;80.10;;;;;;5019005;28;20466;-43
2022/03/17 12:11:58;;;;;;;21.50;15.20;;;11.00;79.70;;;;;;5012563;28;20460;-43
2022/03/17 12:14:25;;;;;;;17.20;13.83;;;11.00;79.80;;;;;;5017422;28;20451;-43
2022/03/17 12:17:04;;;;;;;21.50;14.07;;;11.00;78.70;;;;;;5018117;28;20461;-43
2022/03/17 12:19:37;;;;;;;16.17;13.80;;;11.00;79.10;;;;;;5016918;28;20498;-43
2022/03/17 12:22:08;;;;;;;18.07;13.97;;;11.00;78.90;;;;;;5020012;28;20462;-43
2022/03/17 12:24:51;;;;;;;17.20;13.30;;;10.90;78.20;;;;;;5014913;28;20456;-43
2022/03/17 12:27:30;;;;;;;15.37;12.37;;;10.90;78.10;;;;;;5015611;28;20487;-43
2022/03/17 12:30:28;;;;;;;18.30;13.10;;;10.90;77.90;;;;;;4996928;28;20454;-43
2022/03/17 12:32:59;;;;;;;17.23;13.10;;;10.90;77.80;;;;;;5006229;28;20475;-43
2022/03/17 12:35:30;;;;;;;17.80;13.00;;;10.80;77.90;;;;;;5017966;28;20935;-43
2022/03/17 12:38:03;;;;;;;18.40;13.60;;;10.80;77.70;;;;;;5035715;28;20475;-43
2022/03/17 12:40:44;;;;;;;17.27;12.63;;;10.90;77.70;;;;;;5016455;28;20490;-43
2022/03/17 12:43:17;;;;;;;17.20;13.80;;;10.90;77.60;;;;;;5005836;28;20486;-43
2022/03/17 12:45:47;;;;;;;15.10;13.50;;;10.90;77.70;;;;;;5016185;28;21297;-43
2022/03/17 12:48:14;;;;;;;19.17;13.23;;;10.80;77.80;;;;;;5021311;28;20821;-42
2022/03/17 12:50:41;;;;;;;17.07;13.70;;;10.80;77.80;;;;;;5019024;28;20467;-43
2022/03/17 12:53:09;;;;;;;16.70;13.93;;;10.80;77.70;;;;;;5017628;28;20464;-43
2022/03/17 12:55:36;;;;;;;18.60;13.77;;;10.80;78.10;;;;;;5007877;28;20467;-43